createdAt,value
2019-05-26T00:00:22.705Z,10.35
2019-05-26T00:02:52.460Z,10.42
2019-05-26T00:05:22.470Z,10.38
2019-05-26T00:07:52.659Z,10.36
2019-05-26T00:10:22.494Z,10.33
2019-05-26T00:12:52.549Z,10.32
2019-05-26T00:15:22.546Z,10.34
2019-05-26T00:17:52.567Z,10.31
2019-05-26T00:20:21.601Z,10.33
2019-05-26T00:22:50.607Z,10.38
2019-05-26T00:25:19.652Z,10.41
2019-05-26T00:27:48.664Z,10.41
2019-05-26T00:30:17.825Z,10.42
2019-05-26T00:32:47.154Z,10.46
2019-05-26T00:35:16.366Z,10.49
2019-05-26T00:37:50.011Z,10.48
2019-05-26T00:40:18.082Z,10.48
2019-05-26T00:42:47.118Z,10.51
2019-05-26T00:45:17.026Z,10.55
2019-05-26T00:47:46.058Z,10.56
2019-05-26T00:50:15.572Z,10.54
2019-05-26T00:52:44.923Z,10.58
2019-05-26T00:55:14.341Z,10.60
2019-05-26T00:57:43.388Z,10.65
2019-05-26T01:00:12.619Z,10.63
2019-05-26T01:02:41.779Z,10.60
2019-05-26T01:05:11.210Z,10.59
2019-05-26T01:07:40.236Z,10.59
2019-05-26T01:10:09.799Z,10.56
2019-05-26T01:12:38.829Z,10.53
2019-05-26T01:15:08.338Z,10.56
2019-05-26T01:17:37.382Z,10.55
2019-05-26T01:20:06.852Z,10.58
2019-05-26T01:22:35.849Z,10.59
2019-05-26T01:25:05.252Z,10.58
2019-05-26T01:27:34.287Z,10.54
2019-05-26T01:30:03.354Z,10.49
2019-05-26T01:32:33.452Z,10.47
2019-05-26T01:35:02.509Z,10.47
2019-05-26T01:37:31.869Z,10.39
2019-05-26T01:40:00.966Z,10.40
2019-05-26T01:42:30.305Z,10.37
2019-05-26T01:44:59.337Z,10.42
2019-05-26T01:47:28.195Z,10.43
2019-05-26T01:49:57.224Z,10.43
2019-05-26T01:52:26.328Z,10.43
2019-05-26T01:54:55.225Z,10.44
2019-05-26T01:57:24.261Z,10.49
2019-05-26T01:59:53.303Z,10.53
2019-05-26T02:02:22.356Z,10.55
2019-05-26T02:04:51.473Z,10.51
2019-05-26T02:07:20.518Z,10.53
2019-05-26T02:09:49.531Z,10.51
2019-05-26T02:12:18.589Z,10.48
2019-05-26T02:14:47.615Z,10.51
2019-05-26T02:17:16.637Z,10.43
2019-05-26T02:19:45.502Z,10.47
2019-05-26T02:22:14.539Z,10.48
2019-05-26T02:24:43.549Z,10.48
2019-05-26T02:27:12.587Z,10.43
2019-05-26T02:29:41.644Z,10.44
2019-05-26T02:32:10.684Z,10.49
2019-05-26T02:34:39.722Z,10.53
2019-05-26T02:37:08.757Z,10.58
2019-05-26T02:39:37.787Z,10.59
2019-05-26T02:42:06.820Z,10.54
2019-05-26T02:44:35.839Z,10.53
2019-05-26T02:47:04.882Z,10.53
2019-05-26T02:49:34.231Z,10.53
2019-05-26T02:52:03.276Z,10.50
2019-05-26T02:54:32.288Z,10.51
2019-05-26T02:57:01.339Z,10.47
2019-05-26T02:59:30.365Z,10.43
2019-05-26T03:02:03.978Z,10.38
2019-05-26T03:04:31.020Z,10.37
2019-05-26T03:07:02.025Z,10.33
2019-05-26T03:09:33.600Z,10.30
2019-05-26T03:12:05.351Z,10.33
2019-05-26T03:14:35.344Z,10.38
2019-05-26T03:17:04.604Z,10.39
2019-05-26T03:19:35.632Z,10.42
2019-05-26T03:22:04.911Z,10.47
2019-05-26T03:24:34.280Z,10.48
2019-05-26T03:27:03.496Z,10.44
2019-05-26T03:29:32.518Z,10.48
2019-05-26T03:32:01.590Z,10.48
2019-05-26T03:34:30.681Z,10.47
2019-05-26T03:36:59.730Z,10.49
2019-05-26T03:39:43.539Z,10.47
2019-05-26T03:41:59.390Z,10.49
2019-05-26T03:44:28.330Z,10.51
2019-05-26T03:46:57.289Z,10.53
2019-05-26T03:49:26.429Z,10.57
2019-05-26T03:51:55.755Z,10.61
2019-05-26T03:54:25.341Z,10.56
2019-05-26T03:56:55.328Z,10.64
2019-05-26T03:59:25.461Z,10.66
2019-05-26T04:01:57.529Z,10.66
2019-05-26T04:04:26.828Z,10.72
2019-05-26T04:06:55.881Z,10.71
2019-05-26T04:09:25.556Z,10.77
2019-05-26T04:11:55.546Z,10.83
2019-05-26T04:14:25.527Z,10.85
2019-05-26T04:16:58.610Z,10.87
2019-05-26T04:19:27.882Z,10.87
2019-05-26T04:21:56.895Z,10.86
2019-05-26T04:24:25.963Z,10.94
2019-05-26T04:26:55.915Z,10.96
2019-05-26T04:29:26.061Z,11.00
2019-05-26T04:31:55.651Z,11.06
2019-05-26T04:34:25.704Z,11.14
2019-05-26T04:36:55.949Z,11.09
2019-05-26T04:39:25.728Z,11.18
2019-05-26T04:41:55.703Z,11.21
2019-05-26T04:44:26.055Z,11.27
2019-05-26T04:46:55.777Z,11.27
2019-05-26T04:49:26.054Z,11.35
2019-05-26T04:51:55.791Z,11.46
2019-05-26T04:54:25.819Z,11.55
2019-05-26T04:56:55.935Z,11.71
2019-05-26T04:59:25.855Z,11.83
2019-05-26T05:01:56.186Z,12.03
2019-05-26T05:04:25.899Z,12.13
2019-05-26T05:06:55.913Z,12.20
2019-05-26T05:09:24.945Z,12.24
2019-05-26T05:11:54.022Z,12.27
2019-05-26T05:14:23.352Z,12.23
2019-05-26T05:16:52.384Z,12.18
2019-05-26T05:19:21.759Z,12.36
2019-05-26T05:21:50.753Z,12.37
2019-05-26T05:24:19.692Z,12.32
2019-05-26T05:26:49.273Z,12.39
2019-05-26T05:29:18.288Z,12.49
2019-05-26T05:31:47.328Z,12.59
2019-05-26T05:34:16.343Z,12.60
2019-05-26T05:36:45.384Z,12.57
2019-05-26T05:39:14.351Z,12.69
2019-05-26T05:41:43.365Z,12.69
2019-05-26T05:44:12.408Z,12.74
2019-05-26T05:46:41.451Z,12.85
2019-05-26T05:49:10.469Z,12.95
2019-05-26T05:51:39.511Z,13.08
2019-05-26T05:54:08.526Z,13.13
2019-05-26T05:56:37.473Z,13.02
2019-05-26T05:59:06.812Z,13.23
2019-05-26T06:01:35.832Z,13.33
2019-05-26T06:04:04.904Z,13.27
2019-05-26T06:06:33.955Z,13.37
2019-05-26T06:09:03.267Z,13.38
2019-05-26T06:11:32.230Z,13.30
2019-05-26T06:14:01.243Z,13.30
2019-05-26T06:16:30.302Z,13.28
2019-05-26T06:18:59.396Z,13.37
2019-05-26T06:21:28.450Z,13.35
2019-05-26T06:23:57.458Z,13.41
2019-05-26T06:26:26.675Z,13.41
2019-05-26T06:28:56.577Z,13.45
2019-05-26T06:31:26.526Z,13.37
2019-05-26T06:33:56.595Z,13.52
2019-05-26T06:36:25.630Z,13.55
2019-05-26T06:38:54.647Z,13.61
2019-05-26T06:41:32.939Z,13.58
2019-05-26T06:43:54.671Z,13.70
2019-05-26T06:46:23.709Z,13.68
2019-05-26T06:48:52.754Z,13.63
2019-05-26T06:51:22.181Z,13.54
2019-05-26T06:53:51.511Z,13.40
2019-05-26T06:56:20.561Z,13.31
2019-05-26T06:58:49.603Z,13.48
2019-05-26T07:01:18.638Z,13.65
2019-05-26T07:03:47.707Z,13.55
2019-05-26T07:06:16.747Z,13.51
2019-05-26T07:08:45.714Z,13.43
2019-05-26T07:11:14.785Z,13.52
2019-05-26T07:13:43.787Z,13.50
2019-05-26T07:16:12.834Z,13.52
2019-05-26T07:18:41.869Z,13.41
2019-05-26T07:21:10.909Z,13.41
2019-05-26T07:23:39.945Z,13.32
2019-05-26T07:26:08.958Z,13.32
2019-05-26T07:28:37.975Z,13.18
2019-05-26T07:31:07.033Z,13.14
2019-05-26T07:33:36.472Z,13.23
2019-05-26T07:36:05.691Z,13.13
2019-05-26T07:38:34.740Z,13.01
2019-05-26T07:41:03.791Z,13.05
2019-05-26T07:43:32.834Z,13.13
2019-05-26T07:46:01.904Z,13.05
2019-05-26T07:48:30.970Z,13.02
2019-05-26T07:50:59.999Z,13.10
2019-05-26T07:53:29.060Z,13.14
2019-05-26T07:55:58.088Z,13.07
2019-05-26T07:58:27.395Z,13.11
2019-05-26T08:00:57.423Z,13.05
2019-05-26T08:03:27.431Z,13.10
2019-05-26T08:05:57.741Z,13.10
2019-05-26T08:08:27.767Z,13.08
2019-05-26T08:10:57.463Z,13.10
2019-05-26T08:13:27.521Z,13.16
2019-05-26T08:15:57.432Z,13.16
2019-05-26T08:18:27.519Z,13.22
2019-05-26T08:20:57.510Z,13.29
2019-05-26T08:23:27.493Z,13.25
2019-05-26T08:25:57.637Z,13.44
2019-05-26T08:28:27.567Z,13.48
2019-05-26T08:30:57.620Z,13.56
2019-05-26T08:33:27.657Z,13.69
2019-05-26T08:35:57.645Z,13.66
2019-05-26T08:38:27.957Z,13.71
2019-05-26T08:40:58.033Z,13.71
2019-05-26T08:43:28.154Z,13.86
2019-05-26T08:45:57.773Z,13.81
2019-05-26T08:48:26.783Z,13.87
2019-05-26T08:50:55.844Z,13.87
2019-05-26T08:53:24.879Z,13.81
2019-05-26T08:55:53.916Z,13.85
2019-05-26T08:58:22.947Z,13.95
2019-05-26T09:00:52.008Z,13.98
2019-05-26T09:03:21.028Z,13.98
2019-05-26T09:05:50.383Z,14.11
2019-05-26T09:08:19.743Z,14.18
2019-05-26T09:10:48.778Z,14.17
2019-05-26T09:13:17.801Z,14.27
2019-05-26T09:15:46.872Z,14.19
2019-05-26T09:18:18.942Z,14.28
2019-05-26T09:20:48.428Z,14.36
2019-05-26T09:23:17.461Z,14.39
2019-05-26T09:25:46.853Z,14.42
2019-05-26T09:28:15.896Z,14.45
2019-05-26T09:30:45.041Z,14.55
2019-05-26T09:33:14.074Z,14.66
2019-05-26T09:35:43.107Z,14.62
2019-05-26T09:38:12.179Z,14.67
2019-05-26T09:40:41.208Z,14.67
2019-05-26T09:43:16.033Z,14.71
2019-05-26T09:45:41.000Z,14.83
2019-05-26T09:48:10.052Z,14.84
2019-05-26T09:50:39.103Z,14.75
2019-05-26T09:53:08.146Z,14.76
2019-05-26T09:55:37.187Z,14.88
2019-05-26T09:58:06.235Z,14.88
2019-05-26T10:00:35.317Z,14.80
2019-05-26T10:03:04.338Z,15.05
2019-05-26T10:05:33.691Z,15.22
2019-05-26T10:08:02.696Z,15.26
2019-05-26T10:10:31.746Z,15.34
2019-05-26T10:13:00.814Z,15.62
2019-05-26T10:15:29.850Z,15.76
2019-05-26T10:17:58.782Z,16.06
2019-05-26T10:20:28.787Z,16.21
2019-05-26T10:22:58.779Z,16.43
2019-05-26T10:25:28.850Z,16.35
2019-05-26T10:27:58.902Z,16.25
2019-05-26T10:30:28.832Z,16.79
2019-05-26T10:32:59.343Z,16.80
2019-05-26T10:35:28.907Z,16.79
2019-05-26T10:37:58.894Z,16.86
2019-05-26T10:40:28.923Z,16.61
2019-05-26T10:42:58.921Z,16.53
2019-05-26T10:45:28.940Z,16.41
2019-05-26T10:47:58.872Z,16.46
2019-05-26T10:50:28.806Z,16.42
2019-05-26T10:52:58.877Z,16.33
2019-05-26T10:55:28.944Z,16.40
2019-05-26T10:57:58.958Z,16.25
2019-05-26T11:00:28.940Z,15.93
2019-05-26T11:02:58.962Z,16.05
2019-05-26T11:05:29.037Z,15.93
2019-05-26T11:07:58.986Z,15.83
2019-05-26T11:10:29.043Z,15.74
2019-05-26T11:12:58.949Z,15.60
2019-05-26T11:15:27.985Z,15.67
2019-05-26T11:17:57.659Z,15.73
2019-05-26T11:20:26.792Z,15.71
2019-05-26T11:22:55.799Z,15.82
2019-05-26T11:25:24.840Z,15.80
2019-05-26T11:27:53.863Z,15.79
2019-05-26T11:30:23.196Z,15.68
2019-05-26T11:32:52.224Z,15.60
2019-05-26T11:35:21.361Z,15.56
2019-05-26T11:37:50.361Z,15.48
2019-05-26T11:40:19.496Z,15.47
2019-05-26T11:42:48.521Z,15.46
2019-05-26T11:45:19.196Z,15.49
2019-05-26T11:47:48.220Z,15.45
2019-05-26T11:50:17.756Z,15.33
2019-05-26T11:52:46.791Z,15.39
2019-05-26T11:55:16.255Z,15.50
2019-05-26T11:57:45.548Z,15.48
2019-05-26T12:00:16.150Z,15.50
2019-05-26T12:02:45.936Z,15.53
2019-05-26T12:05:17.775Z,15.62
2019-05-26T12:07:46.557Z,15.68
2019-05-26T12:10:17.363Z,15.69
2019-05-26T12:12:46.423Z,15.72
2019-05-26T12:15:16.152Z,15.62
2019-05-26T12:17:45.203Z,15.59
2019-05-26T12:20:14.529Z,15.69
2019-05-26T12:22:43.804Z,15.75
2019-05-26T12:25:13.126Z,15.85
2019-05-26T12:27:42.367Z,15.88
2019-05-26T12:30:12.012Z,16.08
2019-05-26T12:32:41.028Z,16.25
2019-05-26T12:35:10.277Z,16.39
2019-05-26T12:37:39.303Z,16.47
2019-05-26T12:40:09.355Z,16.28
2019-05-26T12:42:38.416Z,16.37
2019-05-26T12:45:08.416Z,16.29
2019-05-26T12:47:37.423Z,16.26
2019-05-26T12:50:07.934Z,16.19
2019-05-26T12:52:36.971Z,16.14
2019-05-26T12:55:09.290Z,16.03
2019-05-26T12:57:37.513Z,16.11
2019-05-26T13:00:06.895Z,16.03
2019-05-26T13:02:35.940Z,16.02
2019-05-26T13:05:05.187Z,15.99
2019-05-26T13:07:34.213Z,15.87
2019-05-26T13:10:03.230Z,15.71
2019-05-26T13:12:32.272Z,15.72
2019-05-26T13:15:05.964Z,15.70
2019-05-26T13:17:32.073Z,15.57
2019-05-26T13:20:01.105Z,15.49
2019-05-26T13:22:30.145Z,15.43
2019-05-26T13:24:59.757Z,15.36
2019-05-26T13:27:29.890Z,15.33
2019-05-26T13:29:59.801Z,15.18
2019-05-26T13:32:29.722Z,15.14
2019-05-26T13:34:58.774Z,15.04
2019-05-26T13:37:27.811Z,15.00
2019-05-26T13:39:56.846Z,14.90
2019-05-26T13:42:25.897Z,14.76
2019-05-26T13:44:55.311Z,14.70
2019-05-26T13:47:26.554Z,14.65
2019-05-26T13:49:55.100Z,14.62
2019-05-26T13:52:24.128Z,14.68
2019-05-26T13:54:53.177Z,14.59
2019-05-26T13:57:22.125Z,14.60
2019-05-26T13:59:51.205Z,14.62
2019-05-26T14:02:20.250Z,14.60
2019-05-26T14:04:49.318Z,14.60
2019-05-26T14:07:18.668Z,14.59
2019-05-26T14:09:47.719Z,14.58
2019-05-26T14:12:16.770Z,14.59
2019-05-26T14:14:45.925Z,14.58
2019-05-26T14:17:15.245Z,14.50
2019-05-26T14:19:46.504Z,14.53
2019-05-26T14:22:15.535Z,14.58
2019-05-26T14:24:53.303Z,14.60
2019-05-26T14:27:15.704Z,14.64
2019-05-26T14:29:45.035Z,14.66
2019-05-26T14:32:14.080Z,14.69
2019-05-26T14:34:43.098Z,14.72
2019-05-26T14:37:12.085Z,14.78
2019-05-26T14:39:41.512Z,14.98
2019-05-26T14:42:10.472Z,15.07
2019-05-26T14:44:39.507Z,15.05
2019-05-26T14:47:08.554Z,14.95
2019-05-26T14:49:37.591Z,14.92
2019-05-26T14:52:06.863Z,15.04
2019-05-26T14:54:35.932Z,15.00
2019-05-26T14:57:04.948Z,15.03
2019-05-26T14:59:33.983Z,14.90
2019-05-26T15:02:03.033Z,14.97
2019-05-26T15:04:31.984Z,14.95
2019-05-26T15:07:01.006Z,14.97
2019-05-26T15:09:30.799Z,15.00
2019-05-26T15:12:00.819Z,15.15
2019-05-26T15:14:30.846Z,15.30
2019-05-26T15:17:00.834Z,15.47
2019-05-26T15:19:30.879Z,15.61
2019-05-26T15:22:00.856Z,15.61
2019-05-26T15:24:30.904Z,15.58
2019-05-26T15:27:00.924Z,15.51
2019-05-26T15:29:30.912Z,15.65
2019-05-26T15:32:03.012Z,15.72
2019-05-26T15:34:31.743Z,15.71
2019-05-26T15:37:00.987Z,15.72
2019-05-26T15:39:31.011Z,15.77
2019-05-26T15:42:00.994Z,15.70
2019-05-26T15:44:31.055Z,15.64
2019-05-26T15:47:01.033Z,15.56
2019-05-26T15:49:31.080Z,15.47
2019-05-26T15:52:01.067Z,15.46
2019-05-26T15:54:31.066Z,15.45
2019-05-26T15:57:01.136Z,15.44
2019-05-26T15:59:31.137Z,15.44
2019-05-26T16:02:01.156Z,15.32
2019-05-26T16:04:32.716Z,15.26
2019-05-26T16:07:01.737Z,15.18
2019-05-26T16:09:31.221Z,15.06
2019-05-26T16:12:01.169Z,15.04
2019-05-26T16:14:31.226Z,14.97
2019-05-26T16:17:01.290Z,14.92
2019-05-26T16:19:31.267Z,14.84
2019-05-26T16:22:01.300Z,14.76
2019-05-26T16:24:31.308Z,14.68
2019-05-26T16:27:17.849Z,14.67
2019-05-26T16:29:32.078Z,14.54
2019-05-26T16:32:01.363Z,14.53
2019-05-26T16:34:31.357Z,14.57
2019-05-26T16:37:01.405Z,14.56
2019-05-26T16:39:37.009Z,14.55
2019-05-26T16:42:02.176Z,14.55
2019-05-26T16:44:31.963Z,14.54
2019-05-26T16:47:01.480Z,14.51
2019-05-26T16:49:31.389Z,14.42
2019-05-26T16:52:00.419Z,14.32
2019-05-26T16:54:29.500Z,14.35
2019-05-26T16:56:58.452Z,14.31
2019-05-26T16:59:27.515Z,14.34
2019-05-26T17:01:56.557Z,14.30
2019-05-26T17:04:25.581Z,14.32
2019-05-26T17:06:54.628Z,14.36
2019-05-26T17:09:23.678Z,14.38
2019-05-26T17:11:53.075Z,14.31
2019-05-26T17:14:22.086Z,14.36
2019-05-26T17:16:51.119Z,14.40
2019-05-26T17:19:20.132Z,14.38
2019-05-26T17:21:49.623Z,14.43
2019-05-26T17:24:18.639Z,14.38
2019-05-26T17:26:47.682Z,14.42
2019-05-26T17:29:16.699Z,14.41
2019-05-26T17:31:45.766Z,14.38
2019-05-26T17:34:14.808Z,14.48
2019-05-26T17:36:43.842Z,14.51
2019-05-26T17:39:12.856Z,14.55
2019-05-26T17:41:41.870Z,14.60
2019-05-26T17:44:10.896Z,14.63
2019-05-26T17:46:39.826Z,14.52
2019-05-26T17:49:08.866Z,14.58
2019-05-26T17:51:37.910Z,14.59
2019-05-26T17:54:07.365Z,14.62
2019-05-26T17:56:36.407Z,14.63
2019-05-26T17:59:05.581Z,14.66
2019-05-26T18:01:34.594Z,14.64
2019-05-26T18:04:03.601Z,14.57
2019-05-26T18:06:32.626Z,14.52
2019-05-26T18:09:02.135Z,14.50
2019-05-26T18:11:32.137Z,14.42
2019-05-26T18:14:02.171Z,14.43
2019-05-26T18:16:32.177Z,14.39
2019-05-26T18:19:02.245Z,14.43
2019-05-26T18:21:32.500Z,14.43
2019-05-26T18:24:02.192Z,14.40
2019-05-26T18:26:32.270Z,14.39
2019-05-26T18:29:02.291Z,14.37
2019-05-26T18:31:32.298Z,14.34
2019-05-26T18:34:02.340Z,14.32
2019-05-26T18:36:32.359Z,14.28
2019-05-26T18:39:02.378Z,14.26
2019-05-26T18:41:32.400Z,14.30
2019-05-26T18:44:02.368Z,14.27
2019-05-26T18:46:32.427Z,14.23
2019-05-26T18:49:02.448Z,14.21
2019-05-26T18:51:32.456Z,14.19
2019-05-26T18:54:02.451Z,14.18
2019-05-26T18:56:32.455Z,14.21
2019-05-26T18:59:02.416Z,14.24
2019-05-26T19:01:32.777Z,14.23
2019-05-26T19:04:02.542Z,14.15
2019-05-26T19:06:32.531Z,14.19
2019-05-26T19:09:02.574Z,14.20
2019-05-26T19:11:32.558Z,14.16
2019-05-26T19:14:02.902Z,14.15
2019-05-26T19:16:32.612Z,14.18
2019-05-26T19:19:02.619Z,14.18
2019-05-26T19:21:32.731Z,14.11
2019-05-26T19:24:02.639Z,14.13
2019-05-26T19:26:32.675Z,14.17
2019-05-26T19:29:02.712Z,14.18
2019-05-26T19:31:32.999Z,14.16
2019-05-26T19:34:02.670Z,14.16
2019-05-26T19:36:32.750Z,14.17
2019-05-26T19:39:03.133Z,14.19
2019-05-26T19:41:33.201Z,14.19
2019-05-26T19:44:02.813Z,14.19
2019-05-26T19:46:32.917Z,14.17
2019-05-26T19:49:02.943Z,14.21
2019-05-26T19:51:32.985Z,14.17
2019-05-26T19:54:02.976Z,14.18
2019-05-26T19:56:32.980Z,14.22
2019-05-26T19:59:03.029Z,14.23
2019-05-26T20:01:33.024Z,14.23
2019-05-26T20:04:03.014Z,14.25
2019-05-26T20:06:33.062Z,14.29
2019-05-26T20:09:03.563Z,14.25
2019-05-26T20:11:33.105Z,14.23
2019-05-26T20:14:04.339Z,14.20
2019-05-26T20:16:33.313Z,14.20
2019-05-26T20:19:03.166Z,14.20
2019-05-26T20:21:33.152Z,14.17
2019-05-26T20:24:03.292Z,14.06
2019-05-26T20:26:33.463Z,14.18
2019-05-26T20:29:03.196Z,14.19
2019-05-26T20:31:33.214Z,14.18
2019-05-26T20:34:03.544Z,14.21
2019-05-26T20:36:33.261Z,14.22
2019-05-26T20:39:03.280Z,14.18
2019-05-26T20:41:33.285Z,14.22
2019-05-26T20:44:02.628Z,14.19
2019-05-26T20:46:31.641Z,14.21
2019-05-26T20:49:00.672Z,14.19
2019-05-26T20:51:29.715Z,14.20
2019-05-26T20:53:59.081Z,14.16
2019-05-26T20:56:28.230Z,14.17
2019-05-26T20:58:57.276Z,14.16
2019-05-26T21:01:26.320Z,14.17
2019-05-26T21:03:55.365Z,14.13
2019-05-26T21:06:24.380Z,14.14
2019-05-26T21:08:53.415Z,14.13
2019-05-26T21:11:22.412Z,14.06
2019-05-26T21:13:51.423Z,14.04
2019-05-26T21:16:20.457Z,14.05
2019-05-26T21:18:49.417Z,14.03
2019-05-26T21:21:18.430Z,13.99
2019-05-26T21:23:47.469Z,13.98
2019-05-26T21:26:16.500Z,13.96
2019-05-26T21:28:45.560Z,13.91
2019-05-26T21:31:14.567Z,13.86
2019-05-26T21:33:43.580Z,13.85
2019-05-26T21:36:12.609Z,13.88
2019-05-26T21:38:41.628Z,13.85
2019-05-26T21:41:10.966Z,13.86
2019-05-26T21:43:39.907Z,13.81
2019-05-26T21:46:08.960Z,13.81
2019-05-26T21:48:38.325Z,13.77
2019-05-26T21:51:07.366Z,13.73
2019-05-26T21:53:36.759Z,13.81
2019-05-26T21:56:05.894Z,13.81
2019-05-26T21:58:34.837Z,13.75
2019-05-26T22:01:03.961Z,13.76
2019-05-26T22:03:33.979Z,13.76
2019-05-26T22:06:04.044Z,13.74
2019-05-26T22:08:33.994Z,13.79
2019-05-26T22:11:04.047Z,13.70
2019-05-26T22:13:34.023Z,13.71
2019-05-26T22:16:04.150Z,13.71
2019-05-26T22:18:33.971Z,13.76
2019-05-26T22:21:03.067Z,13.77
2019-05-26T22:23:32.414Z,13.74
2019-05-26T22:26:01.461Z,13.77
2019-05-26T22:28:30.756Z,13.81
2019-05-26T22:31:00.150Z,13.79
2019-05-26T22:33:29.109Z,13.79
2019-05-26T22:35:58.434Z,13.77
2019-05-26T22:38:27.386Z,13.72
2019-05-26T22:40:56.332Z,13.74
2019-05-26T22:43:25.387Z,13.79
2019-05-26T22:45:54.413Z,13.74
2019-05-26T22:48:23.457Z,13.75
2019-05-26T22:50:52.467Z,13.74
2019-05-26T22:53:21.553Z,13.70
2019-05-26T22:55:50.587Z,13.68
2019-05-26T22:58:19.540Z,13.70
2019-05-26T23:00:48.593Z,13.75
2019-05-26T23:03:17.985Z,13.70
2019-05-26T23:05:47.007Z,13.71
2019-05-26T23:08:16.052Z,13.71
2019-05-26T23:10:45.119Z,13.66
2019-05-26T23:13:14.063Z,13.63
2019-05-26T23:15:43.087Z,13.63
2019-05-26T23:18:12.128Z,13.60
2019-05-26T23:20:41.174Z,13.58
2019-05-26T23:23:10.201Z,13.60
2019-05-26T23:25:39.228Z,13.59
2019-05-26T23:28:08.287Z,13.60
2019-05-26T23:30:37.337Z,13.61
2019-05-26T23:33:06.353Z,13.63
2019-05-26T23:35:35.413Z,13.62
2019-05-26T23:38:04.827Z,13.65
2019-05-26T23:40:34.827Z,13.56
2019-05-26T23:43:04.878Z,13.56
2019-05-26T23:45:34.806Z,13.54
2019-05-26T23:48:04.979Z,13.54
2019-05-26T23:50:34.905Z,13.51
2019-05-26T23:53:05.122Z,13.47
2019-05-26T23:55:34.960Z,13.53
2019-05-26T23:58:04.973Z,13.49
